sensor_id;sensor_type;location;lat;lon;timestamp;P1;durP1;ratioP1;P2;durP2;ratioP2
37151;SDS011;23046;50.112;8.952;2023-10-19T00:00:02;2.20;;;1.90;;
37151;SDS011;23046;50.112;8.952;2023-10-19T00:00:29;2.20;;;1.60;;
37151;SDS011;23046;50.112;8.952;2023-10-19T00:00:43;1.67;;;1.58;;
37151;SDS011;23046;50.112;8.952;2023-10-19T00:00:59;1.90;;;1.70;;
37151;SDS011;23046;50.112;8.952;2023-10-19T00:01:10;1.85;;;1.75;;
37151;SDS011;23046;50.112;8.952;2023-10-19T00:01:21;1.80;;;1.70;;
37151;SDS011;23046;50.112;8.952;2023-10-19T00:01:35;1.77;;;1.58;;
37151;SDS011;23046;50.112;8.952;2023-10-19T00:01:47;1.60;;;1.50;;
37151;SDS011;23046;50.112;8.952;2023-10-19T00:01:58;2.13;;;1.60;;
37151;SDS011;23046;50.112;8.952;2023-10-19T00:02:08;2.50;;;1.73;;
37151;SDS011;23046;50.112;8.952;2023-10-19T00:02:20;2.47;;;1.70;;
37151;SDS011;23046;50.112;8.952;2023-10-19T00:02:33;1.90;;;1.80;;
37151;SDS011;23046;50.112;8.952;2023-10-19T00:02:44;1.90;;;1.80;;
37151;SDS011;23046;50.112;8.952;2023-10-19T00:02:54;2.07;;;1.77;;
37151;SDS011;23046;50.112;8.952;2023-10-19T00:03:05;2.05;;;1.70;;
37151;SDS011;23046;50.112;8.952;2023-10-19T00:03:17;2.30;;;1.80;;
37151;SDS011;23046;50.112;8.952;2023-10-19T00:03:27;2.58;;;1.85;;
37151;SDS011;23046;50.112;8.952;2023-10-19T00:03:37;3.57;;;1.77;;
37151;SDS011;23046;50.112;8.952;2023-10-19T00:03:48;3.33;;;1.70;;
37151;SDS011;23046;50.112;8.952;2023-10-19T00:03:59;2.97;;;1.80;;
37151;SDS011;23046;50.112;8.952;2023-10-19T00:04:11;2.10;;;1.90;;
37151;SDS011;23046;50.112;8.952;2023-10-19T00:04:21;2.37;;;1.97;;
37151;SDS011;23046;50.112;8.952;2023-10-19T00:04:32;2.80;;;2.05;;
37151;SDS011;23046;50.112;8.952;2023-10-19T00:04:44;2.88;;;2.20;;
37151;SDS011;23046;50.112;8.952;2023-10-19T00:04:54;2.80;;;2.00;;
37151;SDS011;23046;50.112;8.952;2023-10-19T00:05:05;2.20;;;1.70;;
37151;SDS011;23046;50.112;8.952;2023-10-19T00:05:19;2.70;;;1.60;;
37151;SDS011;23046;50.112;8.952;2023-10-19T00:05:30;2.70;;;1.65;;
37151;SDS011;23046;50.112;8.952;2023-10-19T00:05:42;1.95;;;1.65;;
37151;SDS011;23046;50.112;8.952;2023-10-19T00:05:55;1.97;;;1.77;;
37151;SDS011;23046;50.112;8.952;2023-10-19T00:06:05;2.47;;;2.00;;
37151;SDS011;23046;50.112;8.952;2023-10-19T00:06:16;2.17;;;1.97;;
37151;SDS011;23046;50.112;8.952;2023-10-19T00:06:28;1.90;;;1.80;;
37151;SDS011;23046;50.112;8.952;2023-10-19T00:06:38;1.90;;;1.80;;
37151;SDS011;23046;50.112;8.952;2023-10-19T00:06:50;1.83;;;1.73;;
37151;SDS011;23046;50.112;8.952;2023-10-19T00:07:00;1.85;;;1.75;;
37151;SDS011;23046;50.112;8.952;2023-10-19T00:07:11;1.90;;;1.67;;
37151;SDS011;23046;50.112;8.952;2023-10-19T00:07:25;2.45;;;1.80;;
37151;SDS011;23046;50.112;8.952;2023-10-19T00:07:36;2.17;;;1.73;;
37151;SDS011;23046;50.112;8.952;2023-10-19T00:07:46;2.00;;;1.80;;
37151;SDS011;23046;50.112;8.952;2023-10-19T00:07:56;2.10;;;1.90;;
37151;SDS011;23046;50.112;8.952;2023-10-19T00:08:15;2.05;;;1.85;;
37151;SDS011;23046;50.112;8.952;2023-10-19T00:08:31;2.42;;;1.75;;
37151;SDS011;23046;50.112;8.952;2023-10-19T00:09:01;4.35;;;1.90;;
37151;SDS011;23046;50.112;8.952;2023-10-19T00:09:11;2.40;;;1.83;;
37151;SDS011;23046;50.112;8.952;2023-10-19T00:09:22;2.07;;;1.60;;
37151;SDS011;23046;50.112;8.952;2023-10-19T00:09:32;2.00;;;1.67;;
37151;SDS011;23046;50.112;8.952;2023-10-19T00:09:49;2.08;;;1.88;;
37151;SDS011;23046;50.112;8.952;2023-10-19T00:10:03;2.05;;;1.85;;
37151;SDS011;23046;50.112;8.952;2023-10-19T00:10:14;1.93;;;1.70;;
37151;SDS011;23046;50.112;8.952;2023-10-19T00:10:27;2.22;;;1.60;;
37151;SDS011;23046;50.112;8.952;2023-10-19T00:10:45;2.00;;;1.60;;
37151;SDS011;23046;50.112;8.952;2023-10-19T00:10:58;2.00;;;1.65;;
37151;SDS011;23046;50.112;8.952;2023-10-19T00:11:14;2.17;;;1.75;;
37151;SDS011;23046;50.112;8.952;2023-10-19T00:11:36;3.00;;;1.90;;
37151;SDS011;23046;50.112;8.952;2023-10-19T00:11:46;2.80;;;1.90;;
37151;SDS011;23046;50.112;8.952;2023-10-19T00:11:57;3.30;;;1.90;;
37151;SDS011;23046;50.112;8.952;2023-10-19T00:12:07;2.37;;;1.70;;
37151;SDS011;23046;50.112;8.952;2023-10-19T00:12:19;2.33;;;1.85;;
37151;SDS011;23046;50.112;8.952;2023-10-19T00:12:32;1.95;;;1.80;;
37151;SDS011;23046;50.112;8.952;2023-10-19T00:12:42;2.00;;;1.80;;
37151;SDS011;23046;50.112;8.952;2023-10-19T00:12:54;1.80;;;1.70;;
37151;SDS011;23046;50.112;8.952;2023-10-19T00:13:10;1.92;;;1.83;;
37151;SDS011;23046;50.112;8.952;2023-10-19T00:13:24;2.08;;;1.88;;
37151;SDS011;23046;50.112;8.952;2023-10-19T00:13:34;2.27;;;2.07;;
37151;SDS011;23046;50.112;8.952;2023-10-19T00:13:50;2.20;;;2.00;;
37151;SDS011;23046;50.112;8.952;2023-10-19T00:14:01;2.10;;;1.90;;
37151;SDS011;23046;50.112;8.952;2023-10-19T00:14:13;2.45;;;2.10;;
37151;SDS011;23046;50.112;8.952;2023-10-19T00:14:27;2.15;;;1.95;;
37151;SDS011;23046;50.112;8.952;2023-10-19T00:14:37;4.30;;;1.90;;
37151;SDS011;23046;50.112;8.952;2023-10-19T00:14:47;4.23;;;1.70;;
37151;SDS011;23046;50.112;8.952;2023-10-19T00:14:57;4.53;;;1.73;;
37151;SDS011;23046;50.112;8.952;2023-10-19T00:15:08;2.00;;;1.80;;
37151;SDS011;23046;50.112;8.952;2023-10-19T00:15:20;2.58;;;1.90;;
37151;SDS011;23046;50.112;8.952;2023-10-19T00:15:36;2.10;;;1.75;;
37151;SDS011;23046;50.112;8.952;2023-10-19T00:15:50;1.70;;;1.60;;
37151;SDS011;23046;50.112;8.952;2023-10-19T00:16:02;1.77;;;1.65;;
37151;SDS011;23046;50.112;8.952;2023-10-19T00:16:20;1.90;;;1.80;;
37151;SDS011;23046;50.112;8.952;2023-10-19T00:16:39;2.20;;;1.83;;
37151;SDS011;23046;50.112;8.952;2023-10-19T00:16:49;2.50;;;1.90;;
37151;SDS011;23046;50.112;8.952;2023-10-19T00:17:10;2.30;;;1.80;;
37151;SDS011;23046;50.112;8.952;2023-10-19T00:17:21;1.85;;;1.70;;
37151;SDS011;23046;50.112;8.952;2023-10-19T00:17:31;1.70;;;1.60;;
37151;SDS011;23046;50.112;8.952;2023-10-19T00:17:42;1.67;;;1.58;;
37151;SDS011;23046;50.112;8.952;2023-10-19T00:17:56;1.98;;;1.77;;
37151;SDS011;23046;50.112;8.952;2023-10-19T00:18:06;2.00;;;1.80;;
37151;SDS011;23046;50.112;8.952;2023-10-19T00:18:25;3.13;;;1.70;;
37151;SDS011;23046;50.112;8.952;2023-10-19T00:18:37;3.05;;;1.70;;
37151;SDS011;23046;50.112;8.952;2023-10-19T00:18:51;1.70;;;1.60;;
37151;SDS011;23046;50.112;8.952;2023-10-19T00:19:02;1.70;;;1.60;;
37151;SDS011;23046;50.112;8.952;2023-10-19T00:19:13;1.83;;;1.73;;
37151;SDS011;23046;50.112;8.952;2023-10-19T00:19:29;2.20;;;1.95;;
37151;SDS011;23046;50.112;8.952;2023-10-19T00:19:40;2.22;;;1.83;;
37151;SDS011;23046;50.112;8.952;2023-10-19T00:20:07;2.40;;;1.80;;
37151;SDS011;23046;50.112;8.952;2023-10-19T00:20:36;2.00;;;1.80;;
37151;SDS011;23046;50.112;8.952;2023-10-19T00:20:59;2.28;;;1.77;;
37151;SDS011;23046;50.112;8.952;2023-10-19T00:21:29;1.92;;;1.70;;
37151;SDS011;23046;50.112;8.952;2023-10-19T00:21:40;2.40;;;1.70;;
37151;SDS011;23046;50.112;8.952;2023-10-19T00:22:13;2.08;;;1.88;;
37151;SDS011;23046;50.112;8.952;2023-10-19T00:22:31;2.20;;;2.00;;
37151;SDS011;23046;50.112;8.952;2023-10-19T00:22:46;2.00;;;1.80;;
37151;SDS011;23046;50.112;8.952;2023-10-19T00:22:56;2.13;;;1.92;;
37151;SDS011;23046;50.112;8.952;2023-10-19T00:23:08;1.90;;;1.73;;
37151;SDS011;23046;50.112;8.952;2023-10-19T00:23:20;2.45;;;1.70;;
37151;SDS011;23046;50.112;8.952;2023-10-19T00:23:44;1.73;;;1.63;;
37151;SDS011;23046;50.112;8.952;2023-10-19T00:23:57;1.80;;;1.70;;
37151;SDS011;23046;50.112;8.952;2023-10-19T00:24:08;1.90;;;1.80;;
37151;SDS011;23046;50.112;8.952;2023-10-19T00:24:19;2.17;;;1.80;;
37151;SDS011;23046;50.112;8.952;2023-10-19T00:24:33;2.33;;;1.67;;
37151;SDS011;23046;50.112;8.952;2023-10-19T00:24:43;2.30;;;1.87;;
37151;SDS011;23046;50.112;8.952;2023-10-19T00:24:55;3.03;;;1.80;;
37151;SDS011;23046;50.112;8.952;2023-10-19T00:25:05;3.10;;;1.73;;
37151;SDS011;23046;50.112;8.952;2023-10-19T00:25:18;3.20;;;1.60;;
37151;SDS011;23046;50.112;8.952;2023-10-19T00:25:28;2.45;;;1.73;;
37151;SDS011;23046;50.112;8.952;2023-10-19T00:25:39;1.90;;;1.80;;
37151;SDS011;23046;50.112;8.952;2023-10-19T00:25:51;2.10;;;1.75;;
37151;SDS011;23046;50.112;8.952;2023-10-19T00:26:02;2.17;;;1.70;;
37151;SDS011;23046;50.112;8.952;2023-10-19T00:26:34;1.80;;;1.70;;
37151;SDS011;23046;50.112;8.952;2023-10-19T00:26:45;1.93;;;1.77;;
37151;SDS011;23046;50.112;8.952;2023-10-19T00:26:56;2.40;;;1.98;;
37151;SDS011;23046;50.112;8.952;2023-10-19T00:27:07;2.70;;;2.00;;
37151;SDS011;23046;50.112;8.952;2023-10-19T00:27:27;2.20;;;1.80;;
37151;SDS011;23046;50.112;8.952;2023-10-19T00:27:37;2.42;;;1.80;;
37151;SDS011;23046;50.112;8.952;2023-10-19T00:27:47;3.93;;;1.83;;
37151;SDS011;23046;50.112;8.952;2023-10-19T00:27:58;3.60;;;1.85;;
37151;SDS011;23046;50.112;8.952;2023-10-19T00:28:10;2.13;;;1.90;;
37151;SDS011;23046;50.112;8.952;2023-10-19T00:28:22;2.10;;;1.85;;
37151;SDS011;23046;50.112;8.952;2023-10-19T00:28:33;2.17;;;1.70;;
37151;SDS011;23046;50.112;8.952;2023-10-19T00:28:46;2.05;;;1.85;;
37151;SDS011;23046;50.112;8.952;2023-10-19T00:28:59;2.25;;;1.95;;
37151;SDS011;23046;50.112;8.952;2023-10-19T00:29:15;2.30;;;2.10;;
37151;SDS011;23046;50.112;8.952;2023-10-19T00:29:41;3.30;;;1.90;;
37151;SDS011;23046;50.112;8.952;2023-10-19T00:29:53;2.97;;;1.65;;
37151;SDS011;23046;50.112;8.952;2023-10-19T00:30:06;1.98;;;1.70;;
37151;SDS011;23046;50.112;8.952;2023-10-19T00:30:16;2.78;;;1.60;;
37151;SDS011;23046;50.112;8.952;2023-10-19T00:30:31;2.10;;;1.55;;
37151;SDS011;23046;50.112;8.952;2023-10-19T00:30:45;1.80;;;1.70;;
37151;SDS011;23046;50.112;8.952;2023-10-19T00:30:58;1.75;;;1.65;;
37151;SDS011;23046;50.112;8.952;2023-10-19T00:31:14;2.50;;;1.55;;
37151;SDS011;23046;50.112;8.952;2023-10-19T00:31:24;2.80;;;1.80;;
37151;SDS011;23046;50.112;8.952;2023-10-19T00:31:36;2.55;;;1.77;;
37151;SDS011;23046;50.112;8.952;2023-10-19T00:31:50;1.90;;;1.73;;
37151;SDS011;23046;50.112;8.952;2023-10-19T00:32:00;2.37;;;1.70;;
37151;SDS011;23046;50.112;8.952;2023-10-19T00:32:12;2.45;;;1.80;;
37151;SDS011;23046;50.112;8.952;2023-10-19T00:32:25;3.03;;;1.98;;
37151;SDS011;23046;50.112;8.952;2023-10-19T00:32:39;3.00;;;1.80;;
37151;SDS011;23046;50.112;8.952;2023-10-19T00:32:50;2.78;;;1.58;;
37151;SDS011;23046;50.112;8.952;2023-10-19T00:33:02;1.95;;;1.50;;
37151;SDS011;23046;50.112;8.952;2023-10-19T00:33:26;1.77;;;1.65;;
37151;SDS011;23046;50.112;8.952;2023-10-19T00:33:38;1.92;;;1.70;;
37151;SDS011;23046;50.112;8.952;2023-10-19T00:33:49;1.75;;;1.65;;
37151;SDS011;23046;50.112;8.952;2023-10-19T00:34:04;2.20;;;1.73;;
37151;SDS011;23046;50.112;8.952;2023-10-19T00:34:14;2.27;;;1.70;;
37151;SDS011;23046;50.112;8.952;2023-10-19T00:34:24;2.23;;;1.70;;
37151;SDS011;23046;50.112;8.952;2023-10-19T00:34:35;1.70;;;1.60;;
37151;SDS011;23046;50.112;8.952;2023-10-19T00:34:48;1.85;;;1.70;;
37151;SDS011;23046;50.112;8.952;2023-10-19T00:35:01;1.92;;;1.73;;
37151;SDS011;23046;50.112;8.952;2023-10-19T00:35:33;1.70;;;1.60;;
37151;SDS011;23046;50.112;8.952;2023-10-19T00:35:52;1.88;;;1.67;;
37151;SDS011;23046;50.112;8.952;2023-10-19T00:36:10;2.05;;;1.70;;
37151;SDS011;23046;50.112;8.952;2023-10-19T00:36:24;1.98;;;1.77;;
37151;SDS011;23046;50.112;8.952;2023-10-19T00:36:35;1.70;;;1.60;;
37151;SDS011;23046;50.112;8.952;2023-10-19T00:36:52;1.70;;;1.60;;
37151;SDS011;23046;50.112;8.952;2023-10-19T00:37:02;1.67;;;1.58;;
37151;SDS011;23046;50.112;8.952;2023-10-19T00:37:18;1.55;;;1.45;;
37151;SDS011;23046;50.112;8.952;2023-10-19T00:37:31;1.70;;;1.50;;
37151;SDS011;23046;50.112;8.952;2023-10-19T00:37:42;1.90;;;1.67;;
37151;SDS011;23046;50.112;8.952;2023-10-19T00:37:55;2.05;;;1.85;;
37151;SDS011;23046;50.112;8.952;2023-10-19T00:38:08;2.08;;;1.88;;
37151;SDS011;23046;50.112;8.952;2023-10-19T00:38:37;1.85;;;1.58;;
37151;SDS011;23046;50.112;8.952;2023-10-19T00:38:47;2.33;;;1.50;;
37151;SDS011;23046;50.112;8.952;2023-10-19T00:39:00;2.10;;;1.70;;
37151;SDS011;23046;50.112;8.952;2023-10-19T00:39:23;1.77;;;1.67;;
37151;SDS011;23046;50.112;8.952;2023-10-19T00:39:34;1.80;;;1.70;;
37151;SDS011;23046;50.112;8.952;2023-10-19T00:39:53;1.83;;;1.73;;
37151;SDS011;23046;50.112;8.952;2023-10-19T00:40:05;1.85;;;1.75;;
37151;SDS011;23046;50.112;8.952;2023-10-19T00:40:26;2.00;;;1.80;;
37151;SDS011;23046;50.112;8.952;2023-10-19T00:40:52;2.15;;;1.88;;
37151;SDS011;23046;50.112;8.952;2023-10-19T00:41:03;2.70;;;1.95;;
37151;SDS011;23046;50.112;8.952;2023-10-19T00:41:25;2.50;;;1.73;;
37151;SDS011;23046;50.112;8.952;2023-10-19T00:41:39;1.70;;;1.60;;
37151;SDS011;23046;50.112;8.952;2023-10-19T00:41:50;1.80;;;1.70;;
37151;SDS011;23046;50.112;8.952;2023-10-19T00:42:05;1.90;;;1.80;;
37151;SDS011;23046;50.112;8.952;2023-10-19T00:42:16;2.40;;;1.80;;
37151;SDS011;23046;50.112;8.952;2023-10-19T00:42:33;2.30;;;1.77;;
37151;SDS011;23046;50.112;8.952;2023-10-19T00:42:48;1.70;;;1.60;;
37151;SDS011;23046;50.112;8.952;2023-10-19T00:43:03;1.80;;;1.70;;
37151;SDS011;23046;50.112;8.952;2023-10-19T00:43:31;2.63;;;1.92;;
37151;SDS011;23046;50.112;8.952;2023-10-19T00:43:52;1.73;;;1.63;;
37151;SDS011;23046;50.112;8.952;2023-10-19T00:44:21;2.13;;;1.88;;
37151;SDS011;23046;50.112;8.952;2023-10-19T00:44:47;2.13;;;1.52;;
37151;SDS011;23046;50.112;8.952;2023-10-19T00:45:00;2.42;;;1.63;;
37151;SDS011;23046;50.112;8.952;2023-10-19T00:45:15;2.58;;;1.60;;
37151;SDS011;23046;50.112;8.952;2023-10-19T00:45:26;2.30;;;1.70;;
37151;SDS011;23046;50.112;8.952;2023-10-19T00:45:37;1.95;;;1.63;;
37151;SDS011;23046;50.112;8.952;2023-10-19T00:45:51;2.03;;;1.80;;
37151;SDS011;23046;50.112;8.952;2023-10-19T00:46:02;1.83;;;1.73;;
37151;SDS011;23046;50.112;8.952;2023-10-19T00:46:30;1.73;;;1.63;;
37151;SDS011;23046;50.112;8.952;2023-10-19T00:47:04;2.35;;;1.60;;
37151;SDS011;23046;50.112;8.952;2023-10-19T00:47:17;2.28;;;1.60;;
37151;SDS011;23046;50.112;8.952;2023-10-19T00:47:33;2.00;;;1.55;;
37151;SDS011;23046;50.112;8.952;2023-10-19T00:47:49;1.70;;;1.60;;
37151;SDS011;23046;50.112;8.952;2023-10-19T00:48:03;1.77;;;1.67;;
37151;SDS011;23046;50.112;8.952;2023-10-19T00:48:14;1.60;;;1.50;;
37151;SDS011;23046;50.112;8.952;2023-10-19T00:48:25;1.67;;;1.57;;
37151;SDS011;23046;50.112;8.952;2023-10-19T00:48:36;1.88;;;1.77;;
37151;SDS011;23046;50.112;8.952;2023-10-19T00:49:00;2.00;;;1.90;;
37151;SDS011;23046;50.112;8.952;2023-10-19T00:49:11;1.70;;;1.60;;
37151;SDS011;23046;50.112;8.952;2023-10-19T00:49:25;1.55;;;1.45;;
37151;SDS011;23046;50.112;8.952;2023-10-19T00:49:36;1.70;;;1.45;;
37151;SDS011;23046;50.112;8.952;2023-10-19T00:49:48;2.05;;;1.52;;
37151;SDS011;23046;50.112;8.952;2023-10-19T00:49:58;1.80;;;1.50;;
37151;SDS011;23046;50.112;8.952;2023-10-19T00:50:13;2.90;;;1.67;;
37151;SDS011;23046;50.112;8.952;2023-10-19T00:50:27;2.83;;;1.63;;
37151;SDS011;23046;50.112;8.952;2023-10-19T00:50:40;1.90;;;1.50;;
37151;SDS011;23046;50.112;8.952;2023-10-19T00:50:51;2.10;;;1.50;;
37151;SDS011;23046;50.112;8.952;2023-10-19T00:51:05;2.35;;;1.58;;
37151;SDS011;23046;50.112;8.952;2023-10-19T00:51:22;1.60;;;1.50;;
37151;SDS011;23046;50.112;8.952;2023-10-19T00:51:39;1.60;;;1.50;;
37151;SDS011;23046;50.112;8.952;2023-10-19T00:51:53;1.70;;;1.60;;
37151;SDS011;23046;50.112;8.952;2023-10-19T00:52:05;1.67;;;1.58;;
37151;SDS011;23046;50.112;8.952;2023-10-19T00:52:23;1.70;;;1.60;;
37151;SDS011;23046;50.112;8.952;2023-10-19T00:52:33;1.67;;;1.58;;
37151;SDS011;23046;50.112;8.952;2023-10-19T00:52:53;1.90;;;1.60;;
37151;SDS011;23046;50.112;8.952;2023-10-19T00:53:03;1.92;;;1.58;;
37151;SDS011;23046;50.112;8.952;2023-10-19T00:53:18;2.50;;;1.67;;
37151;SDS011;23046;50.112;8.952;2023-10-19T00:53:29;2.40;;;1.70;;
37151;SDS011;23046;50.112;8.952;2023-10-19T00:53:39;2.40;;;1.80;;
37151;SDS011;23046;50.112;8.952;2023-10-19T00:53:49;1.70;;;1.60;;
37151;SDS011;23046;50.112;8.952;2023-10-19T00:54:02;2.03;;;1.70;;
37151;SDS011;23046;50.112;8.952;2023-10-19T00:54:20;1.80;;;1.70;;
37151;SDS011;23046;50.112;8.952;2023-10-19T00:54:42;1.70;;;1.60;;
37151;SDS011;23046;50.112;8.952;2023-10-19T00:54:59;2.67;;;1.80;;
37151;SDS011;23046;50.112;8.952;2023-10-19T00:55:09;3.40;;;1.80;;
37151;SDS011;23046;50.112;8.952;2023-10-19T00:55:22;2.63;;;1.70;;
37151;SDS011;23046;50.112;8.952;2023-10-19T00:55:36;2.47;;;1.73;;
37151;SDS011;23046;50.112;8.952;2023-10-19T00:55:46;1.73;;;1.53;;
37151;SDS011;23046;50.112;8.952;2023-10-19T00:55:56;1.60;;;1.50;;
37151;SDS011;23046;50.112;8.952;2023-10-19T00:56:08;1.55;;;1.45;;
37151;SDS011;23046;50.112;8.952;2023-10-19T00:56:19;1.73;;;1.63;;
37151;SDS011;23046;50.112;8.952;2023-10-19T00:56:30;2.15;;;1.95;;
37151;SDS011;23046;50.112;8.952;2023-10-19T00:56:43;2.10;;;1.90;;
37151;SDS011;23046;50.112;8.952;2023-10-19T00:57:06;1.63;;;1.50;;
37151;SDS011;23046;50.112;8.952;2023-10-19T00:57:22;2.22;;;1.55;;
37151;SDS011;23046;50.112;8.952;2023-10-19T00:57:44;1.50;;;1.40;;
37151;SDS011;23046;50.112;8.952;2023-10-19T00:57:58;2.00;;;1.60;;
37151;SDS011;23046;50.112;8.952;2023-10-19T00:58:14;2.42;;;1.65;;
37151;SDS011;23046;50.112;8.952;2023-10-19T00:58:28;2.60;;;1.60;;
37151;SDS011;23046;50.112;8.952;2023-10-19T00:58:40;2.67;;;1.53;;
37151;SDS011;23046;50.112;8.952;2023-10-19T00:58:51;1.85;;;1.48;;
37151;SDS011;23046;50.112;8.952;2023-10-19T00:59:09;1.60;;;1.50;;
37151;SDS011;23046;50.112;8.952;2023-10-19T00:59:24;2.00;;;1.60;;
37151;SDS011;23046;50.112;8.952;2023-10-19T00:59:40;2.17;;;1.70;;
37151;SDS011;23046;50.112;8.952;2023-10-19T00:59:58;1.73;;;1.63;;
37151;SDS011;23046;50.112;8.952;2023-10-19T01:00:31;2.33;;;1.70;;
37151;SDS011;23046;50.112;8.952;2023-10-19T01:00:44;2.17;;;1.60;;
37151;SDS011;23046;50.112;8.952;2023-10-19T01:00:55;1.60;;;1.50;;
37151;SDS011;23046;50.112;8.952;2023-10-19T01:01:05;1.50;;;1.40;;
37151;SDS011;23046;50.112;8.952;2023-10-19T01:01:15;1.50;;;1.40;;
37151;SDS011;23046;50.112;8.952;2023-10-19T01:01:28;1.60;;;1.50;;
37151;SDS011;23046;50.112;8.952;2023-10-19T01:01:39;1.83;;;1.60;;
37151;SDS011;23046;50.112;8.952;2023-10-19T01:01:54;1.55;;;1.45;;
37151;SDS011;23046;50.112;8.952;2023-10-19T01:02:06;1.60;;;1.45;;
37151;SDS011;23046;50.112;8.952;2023-10-19T01:02:31;1.95;;;1.80;;
37151;SDS011;23046;50.112;8.952;2023-10-19T01:02:41;2.03;;;1.83;;
37151;SDS011;23046;50.112;8.952;2023-10-19T01:02:56;2.00;;;1.80;;
37151;SDS011;23046;50.112;8.952;2023-10-19T01:03:10;1.70;;;1.60;;
37151;SDS011;23046;50.112;8.952;2023-10-19T01:03:21;2.53;;;1.60;;
37151;SDS011;23046;50.112;8.952;2023-10-19T01:03:31;2.63;;;1.60;;
37151;SDS011;23046;50.112;8.952;2023-10-19T01:03:45;1.98;;;1.60;;
37151;SDS011;23046;50.112;8.952;2023-10-19T01:03:57;2.00;;;1.60;;
37151;SDS011;23046;50.112;8.952;2023-10-19T01:04:08;2.22;;;1.50;;
37151;SDS011;23046;50.112;8.952;2023-10-19T01:04:24;2.78;;;1.70;;
37151;SDS011;23046;50.112;8.952;2023-10-19T01:04:35;3.13;;;1.70;;
37151;SDS011;23046;50.112;8.952;2023-10-19T01:04:46;2.10;;;1.60;;
37151;SDS011;23046;50.112;8.952;2023-10-19T01:05:00;1.63;;;1.50;;
37151;SDS011;23046;50.112;8.952;2023-10-19T01:05:15;1.70;;;1.60;;
37151;SDS011;23046;50.112;8.952;2023-10-19T01:05:31;2.05;;;1.50;;
37151;SDS011;23046;50.112;8.952;2023-10-19T01:05:45;2.30;;;1.48;;
37151;SDS011;23046;50.112;8.952;2023-10-19T01:05:58;2.40;;;1.63;;
37151;SDS011;23046;50.112;8.952;2023-10-19T01:06:10;1.98;;;1.63;;
37151;SDS011;23046;50.112;8.952;2023-10-19T01:06:20;2.50;;;1.70;;
37151;SDS011;23046;50.112;8.952;2023-10-19T01:06:30;2.47;;;1.63;;
37151;SDS011;23046;50.112;8.952;2023-10-19T01:06:43;2.00;;;1.58;;
37151;SDS011;23046;50.112;8.952;2023-10-19T01:06:54;1.65;;;1.40;;
37151;SDS011;23046;50.112;8.952;2023-10-19T01:07:28;1.95;;;1.50;;
37151;SDS011;23046;50.112;8.952;2023-10-19T01:07:39;2.15;;;1.60;;
37151;SDS011;23046;50.112;8.952;2023-10-19T01:07:51;2.03;;;1.50;;
37151;SDS011;23046;50.112;8.952;2023-10-19T01:08:07;1.55;;;1.40;;
37151;SDS011;23046;50.112;8.952;2023-10-19T01:08:34;1.65;;;1.52;;
37151;SDS011;23046;50.112;8.952;2023-10-19T01:08:52;1.70;;;1.60;;
37151;SDS011;23046;50.112;8.952;2023-10-19T01:09:02;1.63;;;1.52;;
37151;SDS011;23046;50.112;8.952;2023-10-19T01:09:13;1.50;;;1.40;;
37151;SDS011;23046;50.112;8.952;2023-10-19T01:09:30;1.60;;;1.50;;
37151;SDS011;23046;50.112;8.952;2023-10-19T01:09:44;1.70;;;1.60;;
37151;SDS011;23046;50.112;8.952;2023-10-19T01:09:56;1.58;;;1.48;;
37151;SDS011;23046;50.112;8.952;2023-10-19T01:10:07;1.65;;;1.45;;
37151;SDS011;23046;50.112;8.952;2023-10-19T01:10:30;1.65;;;1.55;;
37151;SDS011;23046;50.112;8.952;2023-10-19T01:10:42;1.60;;;1.50;;
37151;SDS011;23046;50.112;8.952;2023-10-19T01:10:55;1.58;;;1.48;;
37151;SDS011;23046;50.112;8.952;2023-10-19T01:11:10;1.50;;;1.40;;
37151;SDS011;23046;50.112;8.952;2023-10-19T01:11:22;1.75;;;1.65;;
37151;SDS011;23046;50.112;8.952;2023-10-19T01:11:38;1.88;;;1.77;;
37151;SDS011;23046;50.112;8.952;2023-10-19T01:11:48;1.90;;;1.80;;
37151;SDS011;23046;50.112;8.952;2023-10-19T01:12:02;1.85;;;1.75;;
37151;SDS011;23046;50.112;8.952;2023-10-19T01:12:42;1.50;;;1.40;;
37151;SDS011;23046;50.112;8.952;2023-10-19T01:12:53;1.50;;;1.40;;
37151;SDS011;23046;50.112;8.952;2023-10-19T01:13:03;1.60;;;1.50;;
37151;SDS011;23046;50.112;8.952;2023-10-19T01:13:15;1.77;;;1.67;;
37151;SDS011;23046;50.112;8.952;2023-10-19T01:13:26;1.70;;;1.60;;
37151;SDS011;23046;50.112;8.952;2023-10-19T01:13:44;1.70;;;1.60;;
37151;SDS011;23046;50.112;8.952;2023-10-19T01:13:54;1.80;;;1.70;;
37151;SDS011;23046;50.112;8.952;2023-10-19T01:14:17;1.52;;;1.40;;
37151;SDS011;23046;50.112;8.952;2023-10-19T01:14:28;1.50;;;1.40;;
37151;SDS011;23046;50.112;8.952;2023-10-19T01:14:38;1.50;;;1.40;;
37151;SDS011;23046;50.112;8.952;2023-10-19T01:15:04;1.57;;;1.47;;
37151;SDS011;23046;50.112;8.952;2023-10-19T01:15:18;1.63;;;1.52;;
37151;SDS011;23046;50.112;8.952;2023-10-19T01:15:39;2.65;;;1.70;;
37151;SDS011;23046;50.112;8.952;2023-10-19T01:15:50;2.58;;;1.63;;
37151;SDS011;23046;50.112;8.952;2023-10-19T01:16:02;2.40;;;1.50;;
37151;SDS011;23046;50.112;8.952;2023-10-19T01:16:14;1.58;;;1.48;;
37151;SDS011;23046;50.112;8.952;2023-10-19T01:16:30;1.50;;;1.40;;
37151;SDS011;23046;50.112;8.952;2023-10-19T01:16:41;1.70;;;1.40;;
37151;SDS011;23046;50.112;8.952;2023-10-19T01:16:52;1.80;;;1.50;;
37151;SDS011;23046;50.112;8.952;2023-10-19T01:17:06;1.50;;;1.40;;
37151;SDS011;23046;50.112;8.952;2023-10-19T01:17:16;1.53;;;1.43;;
37151;SDS011;23046;50.112;8.952;2023-10-19T01:17:28;1.50;;;1.40;;
37151;SDS011;23046;50.112;8.952;2023-10-19T01:17:42;1.45;;;1.35;;
37151;SDS011;23046;50.112;8.952;2023-10-19T01:17:54;1.50;;;1.40;;
37151;SDS011;23046;50.112;8.952;2023-10-19T01:18:07;1.70;;;1.60;;
37151;SDS011;23046;50.112;8.952;2023-10-19T01:18:20;2.75;;;1.60;;
37151;SDS011;23046;50.112;8.952;2023-10-19T01:18:32;2.55;;;1.58;;
37151;SDS011;23046;50.112;8.952;2023-10-19T01:18:42;3.50;;;1.45;;
37151;SDS011;23046;50.112;8.952;2023-10-19T01:18:53;2.72;;;1.55;;
37151;SDS011;23046;50.112;8.952;2023-10-19T01:19:03;2.67;;;1.60;;
37151;SDS011;23046;50.112;8.952;2023-10-19T01:19:16;1.73;;;1.63;;
37151;SDS011;23046;50.112;8.952;2023-10-19T01:19:30;1.50;;;1.40;;
37151;SDS011;23046;50.112;8.952;2023-10-19T01:19:41;1.43;;;1.33;;
37151;SDS011;23046;50.112;8.952;2023-10-19T01:19:51;1.50;;;1.40;;
37151;SDS011;23046;50.112;8.952;2023-10-19T01:20:03;1.80;;;1.70;;
37151;SDS011;23046;50.112;8.952;2023-10-19T01:20:23;2.53;;;1.67;;
37151;SDS011;23046;50.112;8.952;2023-10-19T01:20:48;1.55;;;1.45;;
37151;SDS011;23046;50.112;8.952;2023-10-19T01:21:05;1.60;;;1.50;;
37151;SDS011;23046;50.112;8.952;2023-10-19T01:21:17;1.75;;;1.55;;
37151;SDS011;23046;50.112;8.952;2023-10-19T01:21:31;2.45;;;1.65;;
37151;SDS011;23046;50.112;8.952;2023-10-19T01:21:47;2.63;;;1.67;;
37151;SDS011;23046;50.112;8.952;2023-10-19T01:22:03;1.55;;;1.35;;
37151;SDS011;23046;50.112;8.952;2023-10-19T01:22:14;1.40;;;1.30;;
37151;SDS011;23046;50.112;8.952;2023-10-19T01:22:27;1.40;;;1.30;;
37151;SDS011;23046;50.112;8.952;2023-10-19T01:22:37;1.50;;;1.40;;
37151;SDS011;23046;50.112;8.952;2023-10-19T01:22:48;1.50;;;1.40;;
37151;SDS011;23046;50.112;8.952;2023-10-19T01:23:00;1.50;;;1.40;;
37151;SDS011;23046;50.112;8.952;2023-10-19T01:23:20;2.83;;;1.55;;
37151;SDS011;23046;50.112;8.952;2023-10-19T01:23:31;2.78;;;1.55;;
37151;SDS011;23046;50.112;8.952;2023-10-19T01:23:41;1.65;;;1.55;;
37151;SDS011;23046;50.112;8.952;2023-10-19T01:23:54;1.60;;;1.42;;
37151;SDS011;23046;50.112;8.952;2023-10-19T01:24:07;1.80;;;1.35;;
37151;SDS011;23046;50.112;8.952;2023-10-19T01:24:21;1.77;;;1.38;;
37151;SDS011;23046;50.112;8.952;2023-10-19T01:24:50;1.50;;;1.40;;
37151;SDS011;23046;50.112;8.952;2023-10-19T01:25:02;1.50;;;1.40;;
37151;SDS011;23046;50.112;8.952;2023-10-19T01:25:13;1.58;;;1.40;;
37151;SDS011;23046;50.112;8.952;2023-10-19T01:25:30;1.45;;;1.30;;